Time;durP1;ratioP1;P1;durP2;ratioP2;P2;SDS_P1;SDS_P2;PMS_P1;PMS_P2;Temp;Humidity;BMP_temperature;BMP_pressure;BME280_temperature;BME280_humidity;BME280_pressure;Samples;Min_cycle;Max_cycle;Signal;HPM_P1;HPM_P2
2022/11/26 00:02:24;;;;;;;117.20;65.60;;;;;;;2.36;79.23;99532.52;103364;1302;112395;-70
2022/11/26 00:04:55;;;;;;;118.80;64.60;;;;;;;2.36;79.39;99534.44;103323;1291;99223;-69
2022/11/26 00:07:27;;;;;;;111.00;62.00;;;;;;;2.34;79.34;99534.87;103388;1297;107278;-71
2022/11/26 00:09:58;;;;;;;111.10;62.70;;;;;;;2.32;79.40;99533.34;103304;1302;99123;-72
2022/11/26 00:12:30;;;;;;;102.20;59.40;;;;;;;2.30;79.44;99531.82;103462;1294;99311;-69
2022/11/26 00:15:09;;;;;;;113.30;63.70;;;;;;;2.29;79.27;99531.35;103355;1295;112366;-70
2022/11/26 00:17:37;;;;;;;121.60;65.00;;;;;;;2.25;79.55;99529.55;103302;1300;96504;-71
2022/11/26 00:20:06;;;;;;;113.80;63.70;;;;;;;2.22;79.62;99529.29;103317;1302;107563;-70
2022/11/26 00:22:40;;;;;;;113.20;64.20;;;;;;;2.21;79.30;99532.10;103297;1298;99700;-71
2022/11/26 00:25:25;;;;;;;108.30;64.00;;;;;;;2.20;79.44;99532.14;103265;1295;99227;-69
2022/11/26 00:27:57;;;;;;;115.70;62.70;;;;;;;2.20;79.54;99534.77;103311;1295;112173;-70
2022/11/26 00:30:26;;;;;;;111.60;62.80;;;;;;;2.21;79.25;99537.38;103446;1301;99245;-69
2022/11/26 00:32:55;;;;;;;105.60;59.40;;;;;;;2.23;79.59;99532.59;103362;1302;105587;-70
2022/11/26 00:35:24;;;;;;;107.50;60.90;;;;;;;2.24;79.62;99534.10;103303;1290;99301;-69
2022/11/26 00:37:56;;;;;;;108.80;59.20;;;;;;;2.26;79.46;99532.67;103401;1291;99297;-70
2022/11/26 00:40:27;;;;;;;105.80;59.60;;;;;;;2.26;79.48;99537.21;103256;1300;112594;-70
2022/11/26 00:42:56;;;;;;;107.80;60.20;;;;;;;2.26;79.56;99537.73;103414;1294;99218;-69
2022/11/26 00:45:30;;;;;;;105.60;57.70;;;;;;;2.27;79.62;99534.73;103287;1295;107542;-70
2022/11/26 00:48:00;;;;;;;103.80;58.10;;;;;;;2.29;79.47;99538.20;103290;1293;99736;-67
2022/11/26 00:50:36;;;;;;;104.60;59.60;;;;;;;2.29;79.70;99537.48;103233;1295;99349;-69
2022/11/26 00:53:07;;;;;;;101.20;57.90;;;;;;;2.30;79.43;99543.73;103253;1308;112459;-71
2022/11/26 00:55:39;;;;;;;98.80;55.50;;;;;;;2.32;79.33;99541.23;103227;1300;99208;-69
2022/11/26 00:58:20;;;;;;;108.90;57.40;;;;;;;2.33;79.60;99542.39;103206;1300;107662;-70
2022/11/26 01:00:48;;;;;;;97.50;53.30;;;;;;;2.35;79.42;99543.20;103205;1300;99332;-69
2022/11/26 01:03:17;;;;;;;105.50;60.50;;;;;;;2.37;79.61;99540.38;103234;1296;99357;-69
2022/11/26 01:05:51;;;;;;;95.50;53.20;;;;;;;2.38;79.53;99537.70;103228;1295;112849;-69
2022/11/26 01:08:26;;;;;;;95.10;50.90;;;;;;;2.38;79.44;99532.82;103246;1295;99277;-70
2022/11/26 01:10:54;;;;;;;93.50;52.60;;;;;;;2.36;79.25;99535.84;103242;1297;107256;-70
2022/11/26 01:13:23;;;;;;;94.80;52.20;;;;;;;2.33;79.29;99529.81;103210;1295;99365;-70
2022/11/26 01:15:54;;;;;;;92.00;51.80;;;;;;;2.31;79.46;99530.59;103347;1293;99186;-69
2022/11/26 01:18:23;;;;;;;90.30;51.40;;;;;;;2.31;79.53;99527.42;103219;1297;111666;-68
2022/11/26 01:20:51;;;;;;;93.20;51.70;;;;;;;2.31;79.30;99527.77;103203;1294;97576;-69
2022/11/26 01:23:19;;;;;;;93.20;53.10;;;;;;;2.30;79.68;99529.55;103199;1300;108161;-69
2022/11/26 01:25:47;;;;;;;92.10;51.20;;;;;;;2.30;79.65;99534.46;103263;1295;99285;-72
2022/11/26 01:28:18;;;;;;;93.50;51.70;;;;;;;2.29;79.51;99538.34;103219;1301;99189;-70
2022/11/26 01:30:46;;;;;;;92.60;51.80;;;;;;;2.30;79.58;99539.52;103223;1294;112459;-70
2022/11/26 01:33:14;;;;;;;87.00;49.50;;;;;;;2.33;79.61;99546.09;103265;1294;99254;-69
2022/11/26 01:35:42;;;;;;;88.10;50.60;;;;;;;2.34;79.45;99546.59;103215;1301;108025;-70
2022/11/26 01:38:14;;;;;;;85.60;48.50;;;;;;;2.36;79.55;99550.39;103212;1287;99361;-68
2022/11/26 01:40:54;;;;;;;80.90;46.90;;;;;;;2.38;79.59;99548.21;103226;1294;99334;-70
2022/11/26 01:43:32;;;;;;;86.50;48.60;;;;;;;2.40;79.70;99545.53;103207;1295;113066;-70
2022/11/26 01:46:00;;;;;;;82.00;46.40;;;;;;;2.43;79.52;99546.68;103210;1300;98930;-70
2022/11/26 01:48:33;;;;;;;84.00;45.20;;;;;;;2.45;79.64;99546.25;103225;1300;107536;-69
2022/11/26 01:51:03;;;;;;;73.10;41.70;;;;;;;2.47;79.97;99543.38;103241;1291;100404;-69
2022/11/26 01:53:45;;;;;;;70.30;40.00;;;;;;;2.49;79.52;99547.88;103258;1292;99224;-69
2022/11/26 01:56:23;;;;;;;81.20;44.80;;;;;;;2.51;79.52;99554.10;103351;1294;113066;-71
2022/11/26 01:58:57;;;;;;;76.00;45.30;;;;;;;2.55;79.66;99550.15;103348;1297;99293;-69
2022/11/26 02:01:28;;;;;;;73.90;41.80;;;;;;;2.57;79.43;99549.05;103347;1302;107435;-69
2022/11/26 02:04:12;;;;;;;72.30;42.10;;;;;;;2.56;79.66;99552.04;103282;1292;99669;-69
2022/11/26 02:06:42;;;;;;;;;;;;;;;2.54;79.52;99550.17;103305;1294;99222;-69
2022/11/26 02:09:11;;;;;;;74.90;40.70;;;;;;;2.48;79.44;99552.11;103211;1304;112522;-69
2022/11/26 02:11:40;;;;;;;76.50;42.30;;;;;;;2.45;79.50;99553.25;103136;1297;96633;-69
2022/11/26 02:14:22;;;;;;;75.90;41.50;;;;;;;2.43;79.35;99555.77;103447;1294;108018;-69
2022/11/26 02:17:24;;;;;;;74.10;41.70;;;;;;;2.43;79.78;99561.02;103325;1294;96558;-70
2022/11/26 02:20:16;;;;;;;73.80;39.50;;;;;;;2.46;79.51;99564.77;103441;1299;97916;-69
2022/11/26 02:22:53;;;;;;;73.90;38.80;;;;;;;2.49;79.57;99570.09;103306;1300;113679;-70
2022/11/26 02:25:49;;;;;;;71.30;39.30;;;;;;;2.53;79.40;99567.86;103312;1300;96971;-69
2022/11/26 02:28:49;;;;;;;71.40;40.00;;;;;;;2.55;79.57;99576.58;103299;1297;107547;-67
2022/11/26 02:31:42;;;;;;;69.60;38.90;;;;;;;2.56;79.78;99573.06;103333;1294;99315;-69
2022/11/26 02:34:35;;;;;;;66.50;37.80;;;;;;;2.58;79.55;99577.35;103338;1295;99249;-70
2022/11/26 02:37:12;;;;;;;64.10;35.00;;;;;;;2.58;79.84;99577.88;103258;1294;112553;-69
2022/11/26 02:39:39;;;;;;;62.00;36.10;;;;;;;2.59;79.49;99579.25;103298;1287;99220;-69
2022/11/26 02:42:29;;;;;;;68.10;38.40;;;;;;;2.62;79.48;99574.96;103384;1300;108130;-70
2022/11/26 02:45:04;;;;;;;65.10;35.10;;;;;;;2.64;79.67;99573.30;103284;1292;99230;-69
2022/11/26 02:47:36;;;;;;;62.90;34.50;;;;;;;2.66;79.57;99572.70;103336;1300;99745;-69
2022/11/26 02:50:11;;;;;;;58.80;34.60;;;;;;;2.66;79.75;99571.30;103277;1294;112554;-70
2022/11/26 02:52:41;;;;;;;57.10;34.00;;;;;;;2.67;79.72;99569.01;103399;1300;99193;-70
2022/11/26 02:55:14;;;;;;;61.40;33.00;;;;;;;2.68;79.52;99572.48;103402;1294;107391;-71
2022/11/26 02:57:47;;;;;;;57.30;32.80;;;;;;;2.71;79.76;99572.92;103343;1295;99359;-69
2022/11/26 03:00:16;;;;;;;56.90;30.90;;;;;;;2.75;79.96;99570.01;103459;1297;99205;-69
2022/11/26 03:03:01;;;;;;;59.60;32.90;;;;;;;2.79;79.58;99576.35;103297;1293;112537;-69
2022/11/26 03:05:35;;;;;;;55.60;30.90;;;;;;;2.82;79.63;99573.96;103322;1300;99132;-69
2022/11/26 03:08:06;;;;;;;53.20;29.90;;;;;;;2.86;79.90;99576.83;103490;1293;107527;-69
2022/11/26 03:10:34;;;;;;;58.10;31.80;;;;;;;2.89;79.91;99577.42;103414;1298;99213;-68
2022/11/26 03:13:02;;;;;;;52.20;30.40;;;;;;;2.93;79.97;99579.56;103450;1295;99424;-70
2022/11/26 03:15:30;;;;;;;56.90;31.30;;;;;;;2.95;79.99;99579.83;103305;1300;113104;-69
2022/11/26 03:17:58;;;;;;;54.80;31.80;;;;;;;2.98;79.68;99582.19;103493;1294;99216;-71
2022/11/26 03:20:25;;;;;;;58.30;34.20;;;;;;;3.01;79.80;99586.16;103362;1294;107567;-70
2022/11/26 03:22:53;;;;;;;55.10;29.70;;;;;;;3.03;80.00;99588.69;103232;1294;99669;-71
2022/11/26 03:25:22;;;;;;;52.60;30.90;;;;;;;3.06;79.91;99590.52;103345;1298;96650;-70
2022/11/26 03:27:49;;;;;;;52.20;31.00;;;;;;;3.08;79.81;99592.02;103315;1294;111550;-69
2022/11/26 03:30:17;;;;;;;52.00;29.60;;;;;;;3.10;79.80;99591.61;103326;1294;96506;-69
2022/11/26 03:32:45;;;;;;;50.00;30.10;;;;;;;3.12;79.73;99591.73;103290;1292;106634;-71
2022/11/26 03:35:13;;;;;;;51.60;29.50;;;;;;;3.14;79.57;99592.89;103360;1294;99348;-69
2022/11/26 03:37:41;;;;;;;56.80;31.30;;;;;;;3.16;79.77;99590.91;103339;1294;99242;-70
2022/11/26 03:40:10;;;;;;;54.00;29.40;;;;;;;3.17;79.80;99589.83;103367;1294;112460;-69
2022/11/26 03:42:37;;;;;;;53.40;30.10;;;;;;;3.18;79.78;99589.42;103360;1291;96549;-68
2022/11/26 03:45:07;;;;;;;54.60;29.50;;;;;;;3.19;79.82;99589.77;103324;1293;108043;-69
2022/11/26 03:47:34;;;;;;;52.00;28.50;;;;;;;3.18;79.62;99590.98;103290;1292;99313;-69
2022/11/26 03:50:05;;;;;;;52.10;29.30;;;;;;;3.20;79.93;99593.56;103318;1294;96520;-70
2022/11/26 03:52:33;;;;;;;51.70;28.40;;;;;;;3.21;79.70;99595.83;103359;1294;112586;-69
2022/11/26 03:55:01;;;;;;;53.10;29.10;;;;;;;3.22;79.67;99596.85;103307;1300;99229;-69
2022/11/26 03:57:29;;;;;;;51.60;28.00;;;;;;;3.21;79.91;99593.35;103245;1294;107900;-70
2022/11/26 03:59:56;;;;;;;51.40;27.90;;;;;;;3.22;79.50;99595.43;103358;1292;99242;-70
2022/11/26 04:02:24;;;;;;;52.30;27.30;;;;;;;3.22;79.78;99594.53;103235;1301;99146;-70
2022/11/26 04:04:53;;;;;;;51.30;28.30;;;;;;;3.22;79.68;99598.39;103410;1288;112822;-70
2022/11/26 04:07:21;;;;;;;47.60;27.40;;;;;;;3.24;79.68;99602.20;103495;1295;99270;-72
2022/11/26 04:09:50;;;;;;;48.10;26.20;;;;;;;3.25;79.74;99602.69;103451;1285;107154;-70
2022/11/26 04:12:17;;;;;;;53.00;28.70;;;;;;;3.26;79.66;99601.08;103341;1293;99221;-70
2022/11/26 04:14:45;;;;;;;49.40;26.40;;;;;;;3.26;79.55;99598.25;103356;1300;99123;-69
2022/11/26 04:17:13;;;;;;;47.50;24.90;;;;;;;3.25;79.61;99600.92;103318;1294;113104;-69
2022/11/26 04:19:41;;;;;;;45.80;24.70;;;;;;;3.24;79.68;99600.80;103320;1297;96911;-70
2022/11/26 04:22:09;;;;;;;45.40;25.20;;;;;;;3.22;79.60;99606.30;103350;1294;107662;-69
2022/11/26 04:24:37;;;;;;;50.90;27.20;;;;;;;3.21;79.68;99607.91;103346;1294;99172;-70
2022/11/26 04:27:05;;;;;;;43.80;24.70;;;;;;;3.21;79.79;99614.91;103352;1300;97160;-70
2022/11/26 04:29:35;;;;;;;47.00;26.50;;;;;;;3.22;79.65;99617.34;103420;1294;112590;-68
2022/11/26 04:32:04;;;;;;;44.40;24.20;;;;;;;3.23;79.66;99621.31;103397;1297;99324;-70
2022/11/26 04:34:32;;;;;;;45.90;25.00;;;;;;;3.25;79.73;99621.62;103299;1294;107592;-70
2022/11/26 04:37:00;;;;;;;43.10;22.60;;;;;;;3.26;79.68;99621.23;103292;1292;99337;-69
2022/11/26 04:39:28;;;;;;;44.70;22.80;;;;;;;3.27;79.63;99626.80;103251;1301;100019;-71
2022/11/26 04:41:56;;;;;;;44.80;23.90;;;;;;;3.28;79.65;99624.98;103296;1291;112520;-70
2022/11/26 04:44:26;;;;;;;44.20;24.20;;;;;;;3.30;79.67;99630.39;103304;1295;136405;-69
2022/11/26 04:46:54;;;;;;;43.00;22.20;;;;;;;3.31;79.64;99630.37;103249;1294;107626;-69
2022/11/26 04:49:22;;;;;;;41.40;23.50;;;;;;;3.32;79.77;99627.35;103290;1301;99253;-69
2022/11/26 04:51:50;;;;;;;43.70;24.20;;;;;;;3.33;79.60;99627.49;103426;1291;99454;-69
2022/11/26 04:54:18;;;;;;;43.00;22.30;;;;;;;3.34;79.46;99626.73;103238;1301;113223;-69
2022/11/26 04:56:46;;;;;;;40.50;22.50;;;;;;;3.35;79.73;99625.30;103258;1288;96494;-69
2022/11/26 04:59:14;;;;;;;41.80;22.00;;;;;;;3.37;79.52;99627.89;103307;1297;107519;-70
2022/11/26 05:01:42;;;;;;;44.40;21.70;;;;;;;3.38;79.57;99631.17;103399;1294;99325;-70
2022/11/26 05:04:10;;;;;;;38.20;21.50;;;;;;;3.38;79.51;99625.55;103416;1302;99241;-70
2022/11/26 05:06:38;;;;;;;41.00;21.40;;;;;;;3.39;79.54;99629.41;103308;1292;112219;-71
2022/11/26 05:09:06;;;;;;;39.00;21.80;;;;;;;3.39;79.50;99623.09;103508;1298;96555;-70
2022/11/26 05:11:33;;;;;;;37.20;19.40;;;;;;;3.37;79.39;99621.54;103288;1300;107535;-69
2022/11/26 05:14:01;;;;;;;38.80;20.90;;;;;;;3.35;79.46;99628.30;103416;1284;99213;-70
2022/11/26 05:16:29;;;;;;;40.00;22.50;;;;;;;3.33;79.53;99628.70;103493;1300;99108;-71
2022/11/26 05:18:57;;;;;;;38.50;20.80;;;;;;;3.33;79.43;99629.77;103336;1299;112694;-71
2022/11/26 05:21:25;;;;;;;40.20;20.70;;;;;;;3.32;79.57;99630.99;103570;1294;96496;-71
2022/11/26 05:23:52;;;;;;;40.20;21.90;;;;;;;3.34;79.74;99632.71;103451;1292;107955;-70
2022/11/26 05:26:20;;;;;;;39.70;20.30;;;;;;;3.34;79.50;99631.85;103525;1302;99254;-70
2022/11/26 05:28:48;;;;;;;41.70;20.70;;;;;;;3.34;79.41;99635.33;103298;1294;99284;-70
2022/11/26 05:31:16;;;;;;;38.80;20.20;;;;;;;3.34;79.47;99635.68;103335;1292;112394;-69
2022/11/26 05:33:44;;;;;;;43.10;20.80;;;;;;;3.34;79.34;99636.05;103234;1295;99340;-69
2022/11/26 05:36:13;;;;;;;44.00;21.30;;;;;;;3.34;79.56;99635.00;103378;1299;108095;-69
2022/11/26 05:38:41;;;;;;;42.30;21.50;;;;;;;3.34;79.35;99639.91;103501;1301;99339;-70
2022/11/26 05:41:09;;;;;;;42.30;21.20;;;;;;;3.34;79.45;99638.69;103424;1294;99876;-69
2022/11/26 05:43:38;;;;;;;38.20;19.70;;;;;;;3.34;79.38;99640.79;103344;1287;113162;-70
2022/11/26 05:46:08;;;;;;;44.40;21.90;;;;;;;3.34;79.40;99642.02;103326;1295;99309;-71
2022/11/26 05:48:37;;;;;;;38.10;20.90;;;;;;;3.33;79.36;99645.02;103400;1298;107988;-70
2022/11/26 05:51:05;;;;;;;39.60;21.00;;;;;;;3.34;79.62;99648.16;103357;1299;99333;-70
2022/11/26 05:53:34;;;;;;;42.10;21.50;;;;;;;3.34;79.35;99651.30;103358;1286;99208;-71
2022/11/26 05:56:02;;;;;;;40.40;20.60;;;;;;;3.34;79.42;99651.46;103364;1301;112593;-72
2022/11/26 05:58:29;;;;;;;38.80;18.90;;;;;;;3.35;79.46;99655.65;103323;1292;99269;-69
2022/11/26 06:00:57;;;;;;;39.00;20.60;;;;;;;3.34;79.49;99652.70;103284;1295;107423;-67
2022/11/26 06:03:27;;;;;;;40.80;20.00;;;;;;;3.34;79.48;99662.53;103299;1295;99888;-67
2022/11/26 06:05:56;;;;;;;39.70;20.30;;;;;;;3.33;79.47;99661.15;103179;1294;97416;-68
2022/11/26 06:08:24;;;;;;;40.90;21.30;;;;;;;3.34;79.47;99670.40;103269;1294;112383;-68
2022/11/26 06:10:51;;;;;;;38.30;20.00;;;;;;;3.33;79.47;99671.65;103191;1297;100883;-68
2022/11/26 06:13:19;;;;;;;41.00;21.90;;;;;;;3.33;79.55;99675.86;103299;1294;107524;-69
2022/11/26 06:15:47;;;;;;;42.20;21.20;;;;;;;3.34;79.44;99676.52;103308;1292;99301;-68
2022/11/26 06:18:16;;;;;;;39.00;19.40;;;;;;;3.34;79.43;99676.52;103292;1302;99922;-70
2022/11/26 06:20:45;;;;;;;36.80;20.10;;;;;;;3.34;79.35;99680.21;103331;1293;111438;-68
2022/11/26 06:23:13;;;;;;;40.60;21.10;;;;;;;3.33;79.13;99682.00;103307;1294;99022;-68
2022/11/26 06:25:43;;;;;;;41.70;21.40;;;;;;;3.34;79.46;99685.83;103266;1287;108359;-69
2022/11/26 06:28:11;;;;;;;37.70;20.10;;;;;;;3.34;79.47;99693.00;103208;1294;99213;-69
2022/11/26 06:30:39;;;;;;;37.50;18.60;;;;;;;3.35;79.46;99697.55;103392;1294;99326;-67
2022/11/26 06:33:08;;;;;;;38.00;20.40;;;;;;;3.34;79.26;99698.09;103309;1301;113091;-68
2022/11/26 06:35:36;;;;;;;40.10;19.10;;;;;;;3.36;79.49;99696.48;103309;1300;96495;-69
2022/11/26 06:38:04;;;;;;;36.30;18.70;;;;;;;3.35;79.36;99696.65;103203;1294;107515;-70
2022/11/26 06:40:32;;;;;;;36.10;18.00;;;;;;;3.36;79.31;99701.20;103202;1292;99250;-69
2022/11/26 06:43:00;;;;;;;36.60;19.20;;;;;;;3.35;79.37;99699.28;103154;1287;99283;-71
2022/11/26 06:45:28;;;;;;;37.90;19.40;;;;;;;3.35;79.14;99702.97;103279;1294;112723;-71
2022/11/26 06:47:56;;;;;;;34.60;18.90;;;;;;;3.36;79.47;99705.41;103331;1299;99309;-70
2022/11/26 06:50:24;;;;;;;35.50;18.60;;;;;;;3.37;79.36;99704.67;103316;1294;107488;-70
2022/11/26 06:52:53;;;;;;;35.90;18.30;;;;;;;3.39;79.45;99704.09;103329;1292;99260;-71
2022/11/26 06:55:22;;;;;;;36.70;18.90;;;;;;;3.39;79.45;99706.70;103399;1294;96555;-72
2022/11/26 06:57:51;;;;;;;35.70;19.20;;;;;;;3.41;79.33;99709.97;103279;1293;113355;-72
2022/11/26 07:00:20;;;;;;;35.60;18.30;;;;;;;3.43;79.32;99708.16;103323;1297;99473;-71
2022/11/26 07:02:49;;;;;;;38.50;19.00;;;;;;;3.46;79.36;99710.70;103242;1294;106390;-72
2022/11/26 07:05:17;;;;;;;35.20;17.50;;;;;;;3.47;79.23;99717.12;103348;1294;99259;-72
2022/11/26 07:07:45;;;;;;;36.60;19.50;;;;;;;3.48;79.23;99718.50;103266;1302;99091;-72
2022/11/26 07:10:13;;;;;;;36.50;19.30;;;;;;;3.49;79.42;99718.10;103294;1301;112404;-71
2022/11/26 07:12:41;;;;;;;31.90;17.50;;;;;;;3.50;79.37;99720.01;103306;1294;96555;-70
2022/11/26 07:15:09;;;;;;;38.50;19.00;;;;;;;3.53;79.44;99720.96;103270;1285;107376;-71
2022/11/26 07:17:37;;;;;;;38.40;19.50;;;;;;;3.55;79.28;99718.25;103224;1302;99458;-71
2022/11/26 07:20:05;;;;;;;33.90;18.00;;;;;;;3.58;79.21;99720.80;103236;1295;99252;-73
2022/11/26 07:22:35;;;;;;;37.30;18.60;;;;;;;3.61;79.35;99723.00;103528;1292;112408;-71
2022/11/26 07:25:05;;;;;;;37.30;19.90;;;;;;;3.63;79.25;99726.44;103358;1298;99400;-72
2022/11/26 07:27:40;;;;;;;33.80;18.60;;;;;;;3.66;79.32;99727.05;103351;1301;107543;-70
2022/11/26 07:30:10;;;;;;;35.80;19.20;;;;;;;3.68;79.26;99733.09;103308;1294;99275;-71
2022/11/26 07:32:38;;;;;;;39.80;21.30;;;;;;;3.69;79.32;99736.04;103369;1287;99277;-71
2022/11/26 07:35:06;;;;;;;41.40;22.80;;;;;;;3.72;79.35;99732.63;103456;1294;112663;-71
2022/11/26 07:37:34;;;;;;;44.50;22.60;;;;;;;3.74;79.25;99738.00;103342;1294;99229;-70
2022/11/26 07:40:05;;;;;;;43.40;23.60;;;;;;;3.75;79.28;99739.73;103280;1295;107649;-69
2022/11/26 07:42:34;;;;;;;43.00;22.60;;;;;;;3.77;79.43;99738.06;103176;1297;99304;-69
2022/11/26 07:45:03;;;;;;;41.10;22.50;;;;;;;3.80;79.32;99740.27;103293;1292;99220;-69
2022/11/26 07:47:31;;;;;;;41.80;22.30;;;;;;;3.83;79.34;99741.73;103317;1293;112298;-70
2022/11/26 07:49:59;;;;;;;41.10;23.30;;;;;;;3.87;79.45;99745.64;103340;1294;99262;-71
2022/11/26 07:52:27;;;;;;;40.30;22.10;;;;;;;3.90;79.32;99747.46;103270;1294;107295;-71
2022/11/26 07:54:54;;;;;;;40.20;22.40;;;;;;;3.93;79.36;99750.01;103285;1294;96663;-70
2022/11/26 07:57:24;;;;;;;40.90;21.60;;;;;;;3.96;79.32;99754.45;103287;1297;99218;-71
2022/11/26 07:59:52;;;;;;;45.90;23.80;;;;;;;3.97;79.37;99754.40;103122;1294;112566;-71
2022/11/26 08:02:20;;;;;;;38.90;21.50;;;;;;;3.96;79.28;99753.39;103300;1300;99149;-70
2022/11/26 08:04:48;;;;;;;41.60;23.30;;;;;;;3.99;79.35;99759.42;103294;1292;106483;-70
2022/11/26 08:07:16;;;;;;;39.60;21.40;;;;;;;4.03;79.32;99753.88;103237;1294;99805;-71
2022/11/26 08:09:56;;;;;;;41.10;21.60;;;;;;;4.05;79.36;99754.32;103288;1297;99323;-71
2022/11/26 08:12:24;;;;;;;41.30;23.30;;;;;;;4.07;79.34;99752.50;103393;1278;112119;-69
2022/11/26 08:14:52;;;;;;;40.00;20.90;;;;;;;4.10;79.33;99750.11;103272;1294;99171;-70
2022/11/26 08:17:19;;;;;;;41.10;23.20;;;;;;;4.12;79.28;99754.61;103195;1297;107509;-70
2022/11/26 08:19:47;;;;;;;42.50;22.20;;;;;;;4.14;79.34;99752.77;103319;1292;99297;-70
2022/11/26 08:22:15;;;;;;;45.90;25.90;;;;;;;4.17;79.18;99754.78;103506;1294;99303;-69
2022/11/26 08:24:44;;;;;;;43.00;23.50;;;;;;;4.20;79.32;99758.18;103318;1298;113191;-71
2022/11/26 08:27:12;;;;;;;42.50;23.30;;;;;;;4.24;79.35;99761.58;103317;1305;99283;-73
2022/11/26 08:29:43;;;;;;;40.70;21.90;;;;;;;4.28;79.31;99769.66;103515;1294;107591;-69
2022/11/26 08:32:11;;;;;;;43.00;22.20;;;;;;;4.33;79.38;99776.35;103368;1301;99251;-70
2022/11/26 08:34:39;;;;;;;40.30;20.80;;;;;;;4.37;79.33;99771.31;103346;1294;96582;-70
2022/11/26 08:37:08;;;;;;;41.50;21.40;;;;;;;4.40;79.37;99772.91;103232;1294;112601;-70
2022/11/26 08:39:36;;;;;;;40.70;21.00;;;;;;;4.43;79.34;99776.00;103322;1294;99411;-69
2022/11/26 08:42:04;;;;;;;40.40;21.00;;;;;;;4.45;79.23;99782.39;103312;1292;107539;-70
2022/11/26 08:44:32;;;;;;;40.60;20.60;;;;;;;4.48;79.29;99776.49;103392;1292;99318;-71
2022/11/26 08:46:59;;;;;;;39.80;21.30;;;;;;;4.51;79.22;99776.02;103352;1292;98295;-70
2022/11/26 08:49:27;;;;;;;37.50;20.80;;;;;;;4.56;79.32;99783.27;103276;1294;112519;-70
2022/11/26 08:51:56;;;;;;;36.90;20.30;;;;;;;4.58;79.36;99784.21;103282;1300;99363;-71
2022/11/26 08:54:24;;;;;;;34.90;19.50;;;;;;;4.61;79.25;99783.41;103238;1300;107519;-70
2022/11/26 08:56:54;;;;;;;38.40;19.80;;;;;;;4.65;79.20;99790.15;103239;1301;99092;-71
2022/11/26 08:59:23;;;;;;;37.70;18.80;;;;;;;4.67;79.30;99785.67;103311;1301;99320;-71
2022/11/26 09:01:51;;;;;;;34.70;17.90;;;;;;;4.69;79.21;99785.77;103285;1294;113144;-69
2022/11/26 09:04:19;;;;;;;36.20;18.80;;;;;;;4.71;79.16;99787.44;103272;1297;99134;-69
2022/11/26 09:06:47;;;;;;;35.40;19.80;;;;;;;4.73;79.14;99786.50;103247;1292;107367;-69
2022/11/26 09:09:16;;;;;;;35.60;18.20;;;;;;;4.76;79.20;99789.86;103226;1294;99340;-71
2022/11/26 09:11:56;;;;;;;36.00;17.90;;;;;;;4.83;79.22;99788.05;103299;1301;99358;-72
2022/11/26 09:14:29;;;;;;;34.00;16.80;;;;;;;4.90;79.04;99784.81;103298;1285;112635;-70
2022/11/26 09:16:57;;;;;;;26.10;12.60;;;;;;;4.96;79.05;99789.50;103382;1301;99338;-69
2022/11/26 09:19:27;;;;;;;33.10;17.00;;;;;;;4.99;78.92;99792.22;103304;1294;107545;-69
2022/11/26 09:21:55;;;;;;;33.10;16.70;;;;;;;5.03;79.03;99792.39;103410;1294;99209;-69
2022/11/26 09:24:26;;;;;;;34.60;18.60;;;;;;;5.09;79.07;99796.23;103389;1294;99390;-71
2022/11/26 09:26:53;;;;;;;33.60;17.10;;;;;;;5.14;79.20;99797.79;103309;1294;112458;-70
2022/11/26 09:29:23;;;;;;;33.30;17.10;;;;;;;5.19;79.10;99800.94;103462;1294;96532;-71
2022/11/26 09:31:53;;;;;;;34.20;18.50;;;;;;;5.23;79.17;99803.27;103458;1294;107816;-72
2022/11/26 09:34:41;;;;;;;34.30;18.10;;;;;;;5.25;79.06;99803.34;103337;1298;99340;-70
2022/11/26 09:37:10;;;;;;;32.30;17.20;;;;;;;5.28;79.02;99802.55;103288;1301;99292;-70
2022/11/26 09:39:39;;;;;;;36.20;19.10;;;;;;;5.30;79.05;99800.88;103300;1294;112043;-69
2022/11/26 09:42:29;;;;;;;34.20;17.70;;;;;;;5.33;79.14;99799.52;103415;1299;99334;-72
2022/11/26 09:45:11;;;;;;;36.40;18.60;;;;;;;5.35;79.08;99799.80;103318;1300;107554;-70
2022/11/26 09:47:50;;;;;;;36.60;17.90;;;;;;;5.37;79.07;99800.08;103266;1301;96691;-69
2022/11/26 09:50:34;;;;;;;32.50;17.20;;;;;;;5.39;79.08;99794.52;103469;1294;99301;-70
2022/11/26 09:53:30;;;;;;;36.00;18.60;;;;;;;5.40;78.81;99796.60;103325;1294;112602;-70
2022/11/26 09:56:01;;;;;;;34.80;18.00;;;;;;;5.43;79.00;99800.02;103329;1293;99980;-70
2022/11/26 09:59:03;;;;;;;34.50;17.50;;;;;;;5.44;79.08;99800.52;103443;1284;107362;-72
2022/11/26 10:01:33;;;;;;;35.40;18.00;;;;;;;5.46;78.88;99801.83;103390;1294;99322;-70
2022/11/26 10:04:06;;;;;;;37.50;18.40;;;;;;;5.48;79.01;99802.45;103322;1301;99207;-70
2022/11/26 10:06:39;;;;;;;34.70;17.80;;;;;;;5.51;78.95;99805.12;103472;1294;112564;-71
2022/11/26 10:09:23;;;;;;;36.10;19.70;;;;;;;5.54;78.97;99806.07;103419;1292;99053;-70
2022/11/26 10:12:10;;;;;;;37.40;19.70;;;;;;;5.56;78.94;99806.16;103414;1301;105787;-72
2022/11/26 10:15:18;;;;;;;33.70;17.80;;;;;;;5.59;78.88;99809.93;103278;1302;99244;-72
2022/11/26 10:17:57;;;;;;;33.60;18.30;;;;;;;5.63;78.93;99819.30;103354;1298;99232;-73
2022/11/26 10:20:51;;;;;;;34.80;18.70;;;;;;;5.65;79.06;99825.68;103344;1295;112540;-70
2022/11/26 10:23:19;;;;;;;;;;;;;;;5.67;78.90;99820.36;103399;1294;99207;-71
2022/11/26 10:25:54;;;;;;;36.50;18.90;;;;;;;5.67;78.79;99817.38;103341;1294;107508;-71
2022/11/26 10:28:43;;;;;;;37.20;18.20;;;;;;;5.72;78.89;99821.74;103360;1301;96796;-71
2022/11/26 10:31:25;;;;;;;33.60;17.80;;;;;;;5.76;78.75;99824.19;103322;1292;96514;-74
2022/11/26 10:34:03;;;;;;;36.30;19.20;;;;;;;5.81;78.67;99820.46;103333;1288;112639;-73
2022/11/26 10:36:40;;;;;;;34.30;19.20;;;;;;;5.87;78.66;99819.90;103349;1294;99254;-72
2022/11/26 10:39:14;;;;;;;34.20;18.00;;;;;;;5.92;78.80;99822.67;103339;1301;107401;-70
2022/11/26 10:41:44;;;;;;;34.90;18.10;;;;;;;5.97;78.81;99820.91;103489;1300;99313;-71
2022/11/26 10:44:38;;;;;;;33.30;19.20;;;;;;;6.00;78.68;99819.56;103434;1300;98551;-72
2022/11/26 10:47:31;;;;;;;34.60;18.00;;;;;;;6.03;78.68;99819.11;103501;1292;112546;-69
2022/11/26 10:50:02;;;;;;;37.30;18.80;;;;;;;6.05;78.55;99819.73;103415;1294;99288;-70
2022/11/26 10:52:52;;;;;;;37.90;18.90;;;;;;;6.07;78.78;99813.11;103432;1294;107543;-70
2022/11/26 10:55:32;;;;;;;39.30;20.00;;;;;;;6.09;78.80;99811.80;103433;1292;99296;-70
2022/11/26 10:58:04;;;;;;;38.60;20.40;;;;;;;6.11;78.69;99811.00;103398;1292;99295;-70
2022/11/26 11:00:48;;;;;;;34.20;17.90;;;;;;;6.13;78.88;99812.84;103308;1301;112545;-70
2022/11/26 11:03:20;;;;;;;36.10;19.80;;;;;;;6.14;78.43;99814.91;103451;1294;99102;-70
2022/11/26 11:06:24;;;;;;;36.80;20.70;;;;;;;6.15;78.71;99814.55;103342;1302;106527;-71
2022/11/26 11:08:55;;;;;;;39.10;20.70;;;;;;;6.17;78.63;99819.21;103388;1302;99286;-72
2022/11/26 11:11:27;;;;;;;38.00;20.10;;;;;;;6.21;78.79;99819.58;103359;1292;99227;-70
2022/11/26 11:13:57;;;;;;;36.20;19.70;;;;;;;6.21;78.64;99817.30;103342;1294;112515;-71
2022/11/26 11:16:37;;;;;;;37.30;20.60;;;;;;;6.22;78.65;99816.02;103400;1297;96552;-70
2022/11/26 11:19:20;;;;;;;37.30;20.00;;;;;;;6.23;78.70;99818.95;103352;1302;107174;-70
2022/11/26 11:21:50;;;;;;;38.80;20.40;;;;;;;6.25;78.46;99817.48;103424;1292;99426;-69
2022/11/26 11:24:26;;;;;;;36.10;20.40;;;;;;;6.27;78.72;99816.70;103358;1301;98302;-70
2022/11/26 11:26:59;;;;;;;41.00;21.20;;;;;;;6.28;78.55;99818.39;103389;1284;112225;-70
2022/11/26 11:29:38;;;;;;;39.20;20.40;;;;;;;6.29;78.46;99814.31;103358;1294;96610;-70
2022/11/26 11:32:33;;;;;;;37.40;20.90;;;;;;;6.31;78.48;99817.19;103493;1292;106558;-70
2022/11/26 11:35:18;;;;;;;37.60;19.80;;;;;;;6.34;78.53;99819.35;103334;1302;99179;-70
2022/11/26 11:37:50;;;;;;;36.30;19.60;;;;;;;6.35;78.36;99820.21;103393;1294;98292;-69